createdAt,value
2018-04-26T00:00:55.791Z,2.70
2018-04-26T00:03:30.067Z,2.23
2018-04-26T00:06:04.347Z,2.40
2018-04-26T00:08:38.644Z,2.50
2018-04-26T00:11:12.910Z,2.33
2018-04-26T00:13:47.296Z,2.60
2018-04-26T00:16:21.546Z,2.50
2018-04-26T00:18:55.865Z,2.40
2018-04-26T00:21:30.105Z,2.30
2018-04-26T00:24:05.122Z,2.40
2018-04-26T00:26:39.428Z,2.57
2018-04-26T00:29:13.747Z,2.60
2018-04-26T00:31:48.049Z,2.40
2018-04-26T00:34:22.271Z,2.50
2018-04-26T00:36:56.433Z,2.60
2018-04-26T00:39:31.449Z,2.30
2018-04-26T00:42:05.825Z,2.53
2018-04-26T00:44:40.249Z,2.70
2018-04-26T00:47:15.262Z,2.47
2018-04-26T00:49:50.254Z,2.90
2018-04-26T00:52:24.547Z,3.00
2018-04-26T00:54:58.750Z,2.70
2018-04-26T00:57:33.740Z,2.80
2018-04-26T01:00:08.139Z,2.63
2018-04-26T01:02:43.382Z,2.90
2018-04-26T01:05:18.388Z,2.63
2018-04-26T01:07:53.557Z,2.53
2018-04-26T01:10:27.936Z,2.67
2018-04-26T01:13:02.810Z,2.40
2018-04-26T01:15:37.160Z,3.23
2018-04-26T01:18:11.395Z,2.90
2018-04-26T01:20:46.728Z,3.10
2018-04-26T01:23:21.095Z,3.23
2018-04-26T01:25:55.627Z,3.03
2018-04-26T01:28:29.980Z,3.40
2018-04-26T01:31:04.374Z,3.00
2018-04-26T01:33:38.560Z,2.73
2018-04-26T01:36:24.952Z,3.00
2018-04-26T01:38:59.223Z,2.73
2018-04-26T01:41:33.883Z,2.90
2018-04-26T01:44:08.891Z,3.20
2018-04-26T01:46:43.284Z,2.87
2018-04-26T01:49:17.995Z,3.30
2018-04-26T01:51:52.365Z,3.13
2018-04-26T01:54:27.384Z,3.10
2018-04-26T01:57:01.852Z,2.80
2018-04-26T01:59:36.051Z,3.00
2018-04-26T02:02:10.342Z,3.23
2018-04-26T02:04:44.561Z,3.67
2018-04-26T02:07:19.160Z,2.80
2018-04-26T02:09:54.520Z,2.60
2018-04-26T02:12:28.960Z,2.40
2018-04-26T02:15:03.989Z,2.50
2018-04-26T02:17:39.227Z,2.60
2018-04-26T02:20:13.720Z,2.30
2018-04-26T02:22:47.984Z,2.53
2018-04-26T02:25:22.380Z,2.40
2018-04-26T02:27:57.504Z,2.40
2018-04-26T02:30:31.835Z,2.77
2018-04-26T02:33:06.109Z,2.03
2018-04-26T02:35:40.660Z,2.40
2018-04-26T02:38:15.601Z,2.30
2018-04-26T02:40:49.853Z,2.50
2018-04-26T02:43:24.086Z,2.47
2018-04-26T02:45:58.972Z,2.37
2018-04-26T02:48:33.893Z,2.23
2018-04-26T02:51:09.527Z,2.10
2018-04-26T02:53:43.822Z,2.13
2018-04-26T02:56:18.581Z,2.40
2018-04-26T02:58:52.892Z,2.17
2018-04-26T03:01:27.914Z,2.27
2018-04-26T03:04:03.044Z,2.30
2018-04-26T03:06:37.474Z,2.53
2018-04-26T03:09:12.431Z,2.30
2018-04-26T03:11:46.717Z,2.30
2018-04-26T03:14:21.023Z,2.23
2018-04-26T03:16:55.404Z,2.10
2018-04-26T03:19:30.387Z,2.33
2018-04-26T03:22:04.923Z,2.10
2018-04-26T03:24:39.307Z,2.40
2018-04-26T03:27:14.585Z,2.07
2018-04-26T03:29:49.022Z,2.03
2018-04-26T03:32:23.509Z,1.93
2018-04-26T03:34:57.919Z,1.80
2018-04-26T03:37:32.227Z,2.20
2018-04-26T03:40:06.552Z,1.73
2018-04-26T03:42:41.158Z,2.23
2018-04-26T03:45:15.535Z,2.30
2018-04-26T03:47:50.176Z,1.90
2018-04-26T03:50:24.710Z,2.17
2018-04-26T03:52:59.020Z,2.17
2018-04-26T03:55:33.264Z,2.10
2018-04-26T03:58:07.624Z,2.07
2018-04-26T04:00:53.942Z,1.70
2018-04-26T04:03:40.414Z,1.53
2018-04-26T04:06:14.991Z,1.70
2018-04-26T04:08:49.227Z,1.63
2018-04-26T04:11:23.574Z,1.87
2018-04-26T04:13:58.643Z,2.00
2018-04-26T04:16:32.958Z,2.00
2018-04-26T04:19:07.202Z,1.80
2018-04-26T04:21:41.842Z,1.77
2018-04-26T04:24:16.093Z,2.10
2018-04-26T04:26:50.347Z,2.23
2018-04-26T04:29:24.644Z,1.83
2018-04-26T04:31:59.307Z,2.10
2018-04-26T04:34:33.602Z,2.03
2018-04-26T04:37:09.050Z,2.03
2018-04-26T04:39:43.347Z,2.10
2018-04-26T04:42:17.679Z,2.30
2018-04-26T04:44:51.888Z,2.20
2018-04-26T04:47:26.054Z,2.43
2018-04-26T04:50:00.752Z,2.10
2018-04-26T04:52:35.062Z,2.10
2018-04-26T04:55:09.380Z,1.90
2018-04-26T04:57:43.605Z,1.70
2018-04-26T05:00:17.895Z,2.00
2018-04-26T05:02:52.368Z,2.27
2018-04-26T05:05:26.557Z,2.10
2018-04-26T05:08:00.987Z,1.90
2018-04-26T05:10:35.263Z,2.30
2018-04-26T05:13:10.241Z,2.07
2018-04-26T05:15:44.399Z,2.90
2018-04-26T05:18:19.476Z,2.40
2018-04-26T05:20:53.879Z,2.70
2018-04-26T05:23:28.172Z,2.30
2018-04-26T05:26:03.338Z,2.33
2018-04-26T05:28:37.780Z,2.40
2018-04-26T05:31:13.219Z,2.50
2018-04-26T05:33:47.912Z,2.80
2018-04-26T05:36:22.144Z,2.60
2018-04-26T05:38:56.664Z,2.20
2018-04-26T05:41:31.719Z,2.43
2018-04-26T05:44:06.994Z,2.70
2018-04-26T05:46:41.405Z,2.40
2018-04-26T05:49:15.592Z,2.60
2018-04-26T05:51:50.105Z,2.20
2018-04-26T05:54:25.122Z,2.13
2018-04-26T05:56:59.459Z,2.17
2018-04-26T05:59:33.719Z,1.80
2018-04-26T06:02:08.259Z,2.10
2018-04-26T06:04:43.304Z,2.33
2018-04-26T06:07:17.738Z,2.47
2018-04-26T06:09:51.947Z,2.30
2018-04-26T06:12:26.165Z,2.40
2018-04-26T06:15:01.217Z,1.90
2018-04-26T06:17:37.972Z,2.20
2018-04-26T06:20:12.229Z,2.10
2018-04-26T06:22:46.445Z,1.77
2018-04-26T06:25:20.717Z,2.27
2018-04-26T06:27:55.245Z,2.10
2018-04-26T06:30:29.536Z,1.93
2018-04-26T06:33:04.907Z,2.20
2018-04-26T06:35:40.011Z,2.07
2018-04-26T06:38:14.640Z,1.80
2018-04-26T06:40:48.935Z,2.20
2018-04-26T06:43:23.676Z,2.10
2018-04-26T06:45:57.971Z,1.83
2018-04-26T06:48:32.515Z,2.07
2018-04-26T06:51:06.733Z,2.10
2018-04-26T06:53:41.259Z,1.93
2018-04-26T06:56:16.437Z,1.90
2018-04-26T06:58:51.014Z,2.20
2018-04-26T07:01:26.112Z,2.10
2018-04-26T07:04:01.103Z,2.50
2018-04-26T07:06:35.370Z,2.17
2018-04-26T07:09:09.620Z,2.60
2018-04-26T07:11:44.656Z,1.90
2018-04-26T07:14:18.828Z,1.90
2018-04-26T07:16:53.291Z,2.10
2018-04-26T07:19:27.485Z,2.90
2018-04-26T07:22:02.221Z,1.97
2018-04-26T07:24:36.521Z,1.70
2018-04-26T07:27:10.721Z,1.90
2018-04-26T07:29:45.934Z,1.90
2018-04-26T07:32:20.913Z,1.93
2018-04-26T07:34:55.929Z,1.40
2018-04-26T07:37:30.272Z,1.87
2018-04-26T07:40:04.555Z,1.40
2018-04-26T07:42:38.880Z,1.73
2018-04-26T07:45:14.186Z,1.57
2018-04-26T07:47:49.176Z,1.80
2018-04-26T07:50:23.570Z,1.97
2018-04-26T07:52:57.788Z,2.13
2018-04-26T07:55:32.016Z,1.63
2018-04-26T07:58:06.355Z,2.07
2018-04-26T08:00:41.383Z,1.40
2018-04-26T08:03:16.073Z,1.73
2018-04-26T08:05:50.396Z,2.23
2018-04-26T08:08:25.155Z,1.70
2018-04-26T08:10:59.444Z,1.70
2018-04-26T08:13:33.722Z,1.50
2018-04-26T08:16:08.004Z,1.70
2018-04-26T08:18:42.542Z,1.93
2018-04-26T08:21:16.933Z,1.97
2018-04-26T08:23:51.207Z,1.60
2018-04-26T08:26:25.616Z,2.00
2018-04-26T08:29:00.147Z,1.77
2018-04-26T08:31:35.127Z,1.97
2018-04-26T08:34:09.523Z,1.80
2018-04-26T08:36:44.639Z,1.70
2018-04-26T08:39:19.006Z,1.70
2018-04-26T08:41:54.046Z,1.70
2018-04-26T08:44:28.312Z,1.40
2018-04-26T08:47:02.727Z,1.53
2018-04-26T08:49:38.067Z,1.83
2018-04-26T08:52:12.424Z,1.70
2018-04-26T08:54:46.823Z,1.30
2018-04-26T08:57:21.851Z,2.17
2018-04-26T08:59:56.292Z,1.80
2018-04-26T09:02:30.914Z,1.70
2018-04-26T09:05:05.403Z,1.90
2018-04-26T09:07:39.724Z,1.23
2018-04-26T09:10:13.918Z,1.83
2018-04-26T09:12:48.349Z,1.50
2018-04-26T09:15:22.663Z,1.73
2018-04-26T09:17:57.022Z,2.17
2018-04-26T09:20:31.275Z,1.50
2018-04-26T09:23:07.075Z,1.53
2018-04-26T09:25:42.220Z,1.30
2018-04-26T09:28:17.454Z,1.73
2018-04-26T09:30:51.765Z,1.60
2018-04-26T09:33:25.952Z,1.93
2018-04-26T09:36:00.258Z,1.40
2018-04-26T09:38:34.599Z,1.50
2018-04-26T09:41:08.899Z,1.40
2018-04-26T09:43:43.090Z,1.47
2018-04-26T09:46:18.096Z,1.43
2018-04-26T09:48:52.366Z,1.40
2018-04-26T09:51:26.583Z,1.50
2018-04-26T09:54:01.555Z,1.67
2018-04-26T09:56:36.623Z,1.47
2018-04-26T09:59:10.969Z,1.20
2018-04-26T10:01:45.482Z,1.40
2018-04-26T10:04:22.496Z,1.57
2018-04-26T10:06:59.906Z,1.50
2018-04-26T10:09:34.570Z,1.30
2018-04-26T10:12:08.891Z,1.23
2018-04-26T10:14:43.844Z,1.40
2018-04-26T10:17:18.912Z,1.23
2018-04-26T10:19:53.168Z,1.50
2018-04-26T10:22:27.413Z,1.60
2018-04-26T10:25:02.441Z,1.27
2018-04-26T10:27:36.648Z,1.50
2018-04-26T10:30:11.585Z,1.40
2018-04-26T10:32:46.010Z,1.40
2018-04-26T10:35:21.020Z,1.77
2018-04-26T10:37:55.388Z,1.17
2018-04-26T10:40:30.401Z,1.53
2018-04-26T10:43:04.715Z,1.60
2018-04-26T10:45:38.926Z,1.27
2018-04-26T10:48:13.570Z,1.30
2018-04-26T10:50:47.743Z,1.20
2018-04-26T10:53:22.045Z,1.07
2018-04-26T10:55:56.268Z,1.10
2018-04-26T10:58:30.790Z,1.23
2018-04-26T11:01:05.148Z,1.20
2018-04-26T11:03:39.868Z,1.30
2018-04-26T11:06:14.468Z,1.20
2018-04-26T11:08:49.294Z,1.13
2018-04-26T11:11:23.683Z,1.40
2018-04-26T11:13:58.354Z,1.10
2018-04-26T11:16:33.584Z,1.20
2018-04-26T11:19:08.267Z,1.33
2018-04-26T11:21:42.442Z,1.20
2018-04-26T11:24:16.983Z,1.50
2018-04-26T11:26:52.139Z,1.23
2018-04-26T11:29:26.923Z,1.10
2018-04-26T11:32:02.061Z,1.00
2018-04-26T11:34:37.095Z,1.20
2018-04-26T11:37:11.597Z,1.27
2018-04-26T11:39:46.061Z,1.43
2018-04-26T11:42:21.044Z,1.10
2018-04-26T11:44:56.144Z,1.00
2018-04-26T11:47:30.485Z,0.90
2018-04-26T11:50:04.805Z,1.20
2018-04-26T11:52:39.865Z,1.20
2018-04-26T11:55:15.112Z,1.20
2018-04-26T11:57:49.416Z,1.10
2018-04-26T12:00:24.461Z,1.17
2018-04-26T12:02:59.546Z,1.10
2018-04-26T12:05:33.882Z,1.10
2018-04-26T12:08:08.159Z,0.90
2018-04-26T12:10:42.379Z,1.07
2018-04-26T12:13:16.625Z,1.00
2018-04-26T12:15:51.009Z,1.07
2018-04-26T12:18:26.026Z,1.10
2018-04-26T12:21:00.192Z,1.40
2018-04-26T12:23:34.433Z,1.13
2018-04-26T12:26:08.727Z,1.10
2018-04-26T12:28:43.854Z,1.10
2018-04-26T12:31:18.082Z,1.37
2018-04-26T12:33:52.379Z,0.97
2018-04-26T12:36:26.621Z,1.13
2018-04-26T12:39:01.555Z,1.17
2018-04-26T12:41:36.301Z,1.13
2018-04-26T12:44:11.478Z,1.20
2018-04-26T12:46:46.127Z,1.27
2018-04-26T12:49:21.292Z,0.90
2018-04-26T12:51:56.001Z,1.00
2018-04-26T12:54:30.223Z,0.93
2018-04-26T12:57:04.962Z,1.30
2018-04-26T12:59:39.983Z,1.20
2018-04-26T13:02:14.408Z,1.17
2018-04-26T13:04:48.654Z,1.20
2018-04-26T13:07:22.899Z,1.17
2018-04-26T13:09:57.192Z,1.20
2018-04-26T13:12:31.419Z,1.00
2018-04-26T13:15:05.672Z,1.40
2018-04-26T13:17:39.967Z,1.00
2018-04-26T13:20:14.249Z,1.00
2018-04-26T13:22:49.049Z,1.00
2018-04-26T13:25:23.318Z,1.40
2018-04-26T13:27:57.471Z,1.40
2018-04-26T13:30:31.652Z,1.00
2018-04-26T13:33:05.795Z,0.90
2018-04-26T13:35:40.084Z,1.10
2018-04-26T13:38:14.239Z,1.53
2018-04-26T13:40:48.660Z,1.03
2018-04-26T13:43:22.785Z,1.17
2018-04-26T13:45:57.089Z,1.30
2018-04-26T13:48:31.243Z,1.00
2018-04-26T13:51:05.856Z,1.40
2018-04-26T13:53:40.926Z,1.30
2018-04-26T13:56:15.230Z,1.20
2018-04-26T13:58:49.428Z,1.20
2018-04-26T14:01:24.787Z,1.10
2018-04-26T14:03:58.958Z,1.17
2018-04-26T14:06:33.208Z,1.13
2018-04-26T14:09:07.623Z,1.10
2018-04-26T14:11:42.682Z,1.20
2018-04-26T14:14:17.075Z,1.23
2018-04-26T14:16:51.524Z,1.20
2018-04-26T14:19:25.815Z,1.37
2018-04-26T14:22:00.877Z,1.10
2018-04-26T14:24:35.893Z,1.40
2018-04-26T14:27:10.731Z,0.77
2018-04-26T14:29:45.252Z,1.40
2018-04-26T14:32:19.664Z,1.00
2018-04-26T14:34:54.813Z,0.93
2018-04-26T14:37:26.330Z,1.10
2018-04-26T14:39:54.563Z,1.00
2018-04-26T14:42:23.639Z,0.90
2018-04-26T14:44:52.270Z,0.97
2018-04-26T14:47:21.048Z,1.30
2018-04-26T14:49:49.456Z,1.03
2018-04-26T14:52:18.491Z,1.13
2018-04-26T14:54:47.523Z,0.93
2018-04-26T14:57:15.889Z,1.00
2018-04-26T14:59:44.184Z,1.00
2018-04-26T15:02:12.472Z,0.80
2018-04-26T15:04:40.803Z,1.10
2018-04-26T15:07:09.080Z,0.97
2018-04-26T15:09:37.381Z,1.20
2018-04-26T15:12:05.691Z,1.20
2018-04-26T15:14:34.754Z,1.30
2018-04-26T15:17:03.226Z,1.20
2018-04-26T15:19:31.529Z,1.03
2018-04-26T15:22:00.603Z,1.00
2018-04-26T15:24:28.930Z,0.80
2018-04-26T15:26:58.015Z,1.03
2018-04-26T15:29:27.176Z,1.00
2018-04-26T15:31:55.559Z,0.93
2018-04-26T15:34:23.802Z,1.10
2018-04-26T15:36:52.101Z,1.17
2018-04-26T15:39:20.787Z,1.20
2018-04-26T15:41:49.099Z,1.10
2018-04-26T15:44:18.184Z,1.30
2018-04-26T15:46:46.484Z,1.03
2018-04-26T15:49:14.931Z,1.30
2018-04-26T15:51:43.208Z,1.17
2018-04-26T15:54:23.583Z,1.13
2018-04-26T15:57:04.556Z,0.80
2018-04-26T15:59:45.799Z,0.90
2018-04-26T16:05:53.397Z,1.30
2018-04-26T16:08:39.413Z,1.30
2018-04-26T16:11:22.875Z,1.20
2018-04-26T16:14:05.174Z,1.00
2018-04-26T16:16:54.658Z,1.30
2018-04-26T16:19:40.589Z,1.03
2018-04-26T16:22:26.841Z,1.30
2018-04-26T16:25:07.107Z,1.20
2018-04-26T16:27:47.443Z,1.10
2018-04-26T16:30:28.239Z,1.10
2018-04-26T16:33:08.524Z,0.93
2018-04-26T16:35:48.834Z,1.40
2018-04-26T16:38:29.372Z,1.53
2018-04-26T16:40:58.436Z,1.10
2018-04-26T16:43:26.751Z,1.33
2018-04-26T16:45:55.895Z,1.57
2018-04-26T16:48:24.200Z,1.13
2018-04-26T16:50:52.862Z,1.20
2018-04-26T16:53:21.740Z,1.10
2018-04-26T16:55:50.092Z,1.10
2018-04-26T16:58:18.745Z,1.30
2018-04-26T17:00:47.027Z,1.10
2018-04-26T17:03:16.081Z,1.53
2018-04-26T17:05:44.445Z,1.40
2018-04-26T17:08:12.735Z,1.30
2018-04-26T17:10:41.043Z,1.17
2018-04-26T17:13:09.432Z,1.20
2018-04-26T17:15:38.502Z,1.30
2018-04-26T17:18:06.815Z,1.60
2018-04-26T17:20:35.879Z,1.47
2018-04-26T17:23:04.941Z,1.33
2018-04-26T17:25:33.279Z,1.40
2018-04-26T17:28:02.479Z,1.50
2018-04-26T17:30:30.684Z,1.57
2018-04-26T17:32:59.010Z,1.40
2018-04-26T17:35:27.345Z,1.40
2018-04-26T17:37:55.706Z,1.30
2018-04-26T17:40:23.996Z,1.10
2018-04-26T17:42:52.352Z,1.00
2018-04-26T17:45:21.024Z,1.30
2018-04-26T17:47:49.572Z,1.40
2018-04-26T17:50:17.906Z,1.70
2018-04-26T17:52:47.060Z,1.50
2018-04-26T17:55:16.139Z,1.53
2018-04-26T17:57:44.748Z,1.57
2018-04-26T18:00:13.791Z,1.50
2018-04-26T18:02:42.095Z,0.97
2018-04-26T18:05:11.161Z,1.13
2018-04-26T18:07:39.465Z,1.13
2018-04-26T18:10:08.525Z,1.10
2018-04-26T18:12:36.826Z,1.50
2018-04-26T18:15:05.910Z,1.17
2018-04-26T18:17:34.269Z,1.77
2018-04-26T18:20:08.577Z,1.50
2018-04-26T18:22:31.643Z,1.10
2018-04-26T18:24:59.984Z,0.90
2018-04-26T18:27:28.279Z,1.30
2018-04-26T18:29:56.641Z,1.27
2018-04-26T18:32:24.948Z,1.10
2018-04-26T18:34:53.310Z,1.40
2018-04-26T18:37:22.228Z,1.20
2018-04-26T18:39:50.544Z,1.17
2018-04-26T18:42:18.881Z,1.50
2018-04-26T18:44:47.182Z,0.97
2018-04-26T18:47:16.273Z,1.20
2018-04-26T18:49:44.703Z,0.97
2018-04-26T18:52:13.118Z,1.07
2018-04-26T18:54:41.479Z,1.37
2018-04-26T18:57:09.964Z,1.13
2018-04-26T18:59:38.297Z,1.03
2018-04-26T19:02:06.658Z,1.17
2018-04-26T19:04:35.023Z,1.23
2018-04-26T19:07:04.138Z,1.20
2018-04-26T19:09:32.563Z,1.23
2018-04-26T19:12:01.691Z,1.30
2018-04-26T19:14:30.346Z,1.30
2018-04-26T19:16:59.903Z,1.10
2018-04-26T19:19:28.429Z,1.20
2018-04-26T19:21:57.750Z,1.47
2018-04-26T19:24:26.343Z,1.47
2018-04-26T19:26:55.005Z,1.40
2018-04-26T19:29:23.745Z,1.43
2018-04-26T19:31:52.372Z,1.80
2018-04-26T19:34:20.983Z,1.53
2018-04-26T19:36:49.593Z,1.27
2018-04-26T19:39:18.539Z,1.20
2018-04-26T19:41:47.150Z,1.30
2018-04-26T19:44:15.767Z,1.20
2018-04-26T19:46:45.174Z,1.30
2018-04-26T19:49:14.583Z,1.30
2018-04-26T19:51:44.221Z,1.40
2018-04-26T19:54:12.832Z,1.70
2018-04-26T19:56:41.455Z,1.60
2018-04-26T19:59:10.848Z,1.43
2018-04-26T20:01:39.473Z,1.47
2018-04-26T20:04:08.160Z,1.77
2018-04-26T20:06:36.808Z,1.50
2018-04-26T20:09:06.172Z,1.30
2018-04-26T20:11:34.798Z,1.67
2018-04-26T20:14:03.431Z,1.33
2018-04-26T20:16:32.108Z,1.40
2018-04-26T20:19:01.003Z,1.40
2018-04-26T20:21:29.621Z,1.40
2018-04-26T20:23:59.003Z,1.53
2018-04-26T20:26:27.607Z,1.60
2018-04-26T20:28:56.978Z,1.83
2018-04-26T20:31:25.572Z,1.50
2018-04-26T20:33:54.196Z,1.67
2018-04-26T20:36:22.815Z,1.60
2018-04-26T20:38:52.317Z,1.97
2018-04-26T20:41:20.958Z,1.77
2018-04-26T20:43:49.852Z,1.53
2018-04-26T20:46:19.224Z,1.67
2018-04-26T20:48:48.560Z,1.83
2018-04-26T20:51:17.621Z,1.50
2018-04-26T20:53:47.027Z,1.57
2018-04-26T20:56:16.398Z,1.37
2018-04-26T20:58:45.037Z,1.87
2018-04-26T21:01:13.430Z,1.77
2018-04-26T21:03:42.503Z,1.70
2018-04-26T21:06:10.822Z,1.70
2018-04-26T21:08:39.221Z,1.80
2018-04-26T21:11:07.588Z,1.83
2018-04-26T21:13:35.947Z,1.93
2018-04-26T21:16:04.261Z,1.60
2018-04-26T21:18:32.625Z,1.57
2018-04-26T21:21:00.942Z,1.30
2018-04-26T21:23:29.558Z,2.10
2018-04-26T21:25:57.868Z,1.80
2018-04-26T21:28:26.216Z,1.87
2018-04-26T21:30:55.329Z,2.00
2018-04-26T21:33:24.246Z,1.90
2018-04-26T21:35:52.805Z,2.17
2018-04-26T21:38:21.128Z,1.80
2018-04-26T21:40:49.500Z,1.67
2018-04-26T21:43:17.822Z,1.87
2018-04-26T21:45:46.170Z,1.87
2018-04-26T21:48:15.245Z,2.00
2018-04-26T21:50:49.153Z,1.70
2018-04-26T21:53:23.392Z,2.00
2018-04-26T21:55:57.279Z,1.73
2018-04-26T21:58:31.276Z,1.90
2018-04-26T22:01:05.337Z,1.53
2018-04-26T22:03:50.348Z,1.70
2018-04-26T22:06:19.503Z,1.80
2018-04-26T22:08:47.823Z,2.13
2018-04-26T22:11:16.144Z,2.10
2018-04-26T22:13:44.486Z,2.10
2018-04-26T22:16:12.808Z,2.10
2018-04-26T22:18:41.201Z,2.00
2018-04-26T22:21:09.525Z,1.80
2018-04-26T22:23:38.632Z,2.17
2018-04-26T22:26:07.863Z,2.13
2018-04-26T22:28:36.204Z,2.00
2018-04-26T22:31:05.347Z,2.00
2018-04-26T22:33:33.661Z,1.97
2018-04-26T22:36:02.761Z,2.20
2018-04-26T22:38:31.859Z,2.10
2018-04-26T22:41:01.021Z,2.13
2018-04-26T22:43:29.332Z,2.27
2018-04-26T22:45:58.831Z,2.00
2018-04-26T22:48:28.004Z,1.83
2018-04-26T22:50:56.383Z,2.13
2018-04-26T22:53:25.073Z,2.10
2018-04-26T22:55:53.391Z,1.90
2018-04-26T22:58:21.732Z,1.77
2018-04-26T23:00:50.825Z,1.70
2018-04-26T23:03:19.917Z,1.87
2018-04-26T23:05:49.004Z,2.00
2018-04-26T23:08:17.392Z,2.00
2018-04-26T23:10:46.467Z,1.80
2018-04-26T23:13:15.571Z,2.10
2018-04-26T23:15:44.854Z,2.00
2018-04-26T23:18:13.580Z,1.77
2018-04-26T23:20:42.676Z,1.53
2018-04-26T23:23:11.748Z,2.10
2018-04-26T23:25:40.855Z,1.90
2018-04-26T23:28:09.944Z,1.90
2018-04-26T23:30:39.350Z,2.30
2018-04-26T23:33:08.447Z,2.10
2018-04-26T23:35:36.764Z,2.07
2018-04-26T23:38:05.094Z,2.37
2018-04-26T23:40:34.200Z,1.90
2018-04-26T23:43:02.874Z,2.10
2018-04-26T23:45:31.960Z,1.93
2018-04-26T23:48:01.073Z,2.10
2018-04-26T23:50:33.074Z,2.10
2018-04-26T23:53:01.409Z,2.40
2018-04-26T23:55:29.724Z,2.20
2018-04-26T23:57:58.090Z,1.90
